createdAt,value
2023-05-06T00:02:18.546Z,101611.09
2023-05-06T00:07:20.117Z,101609.56
2023-05-06T00:12:21.670Z,101602.81
2023-05-06T00:17:23.269Z,101596.50
2023-05-06T00:22:25.279Z,101603.75
2023-05-06T00:27:27.143Z,101598.56
2023-05-06T00:32:28.776Z,101594.28
2023-05-06T00:37:30.477Z,101594.28
2023-05-06T00:42:33.210Z,101598.34
2023-05-06T00:47:34.841Z,101585.00
2023-05-06T00:52:36.525Z,101605.34
2023-05-06T00:57:40.278Z,101594.63
2023-05-06T01:02:47.403Z,101596.84
2023-05-06T01:08:25.420Z,101583.94
2023-05-06T01:13:38.877Z,101584.81
2023-05-06T01:18:41.043Z,101576.81
2023-05-06T01:23:58.070Z,101574.31
2023-05-06T01:29:02.054Z,101572.59
2023-05-06T01:34:27.996Z,101572.44
2023-05-06T01:39:32.269Z,101566.78
2023-05-06T01:44:37.022Z,101570.94
2023-05-06T01:49:39.114Z,101571.41
2023-05-06T01:54:40.583Z,101575.47
2023-05-06T01:59:42.108Z,101584.16
2023-05-06T02:04:43.699Z,101582.63
2023-05-06T02:09:45.359Z,101593.38
2023-05-06T02:14:46.897Z,101591.94
2023-05-06T02:19:48.424Z,101602.31
2023-05-06T02:24:49.902Z,101601.00
2023-05-06T02:29:51.368Z,101594.97
2023-05-06T02:34:53.228Z,101590.47
2023-05-06T02:39:54.749Z,101590.88
2023-05-06T02:44:56.259Z,101591.47
2023-05-06T02:49:57.927Z,101585.00
2023-05-06T02:54:59.452Z,101585.91
2023-05-06T03:00:00.977Z,101590.53
2023-05-06T03:05:04.624Z,101586.28
2023-05-06T03:10:07.340Z,101581.28
2023-05-06T03:15:09.293Z,101573.75
2023-05-06T03:20:11.246Z,101578.56
2023-05-06T03:25:12.831Z,101577.50
2023-05-06T03:30:14.469Z,101589.44
2023-05-06T03:35:16.668Z,101578.13
2023-05-06T03:40:18.200Z,101573.84
2023-05-06T03:45:19.797Z,101582.91
2023-05-06T03:50:21.356Z,101579.69
2023-05-06T03:55:22.902Z,101586.00
2023-05-06T04:00:24.491Z,101577.06
2023-05-06T04:05:26.028Z,101585.50
2023-05-06T04:10:27.549Z,101591.38
2023-05-06T04:15:31.966Z,101590.75
2023-05-06T04:20:33.507Z,101582.97
2023-05-06T04:25:35.824Z,101593.50
2023-05-06T04:30:37.577Z,101598.91
2023-05-06T04:35:39.806Z,101595.31
2023-05-06T04:40:41.368Z,101605.22
2023-05-06T04:45:49.463Z,101599.50
2023-05-06T04:50:51.274Z,101616.91
2023-05-06T04:55:52.843Z,101617.94
2023-05-06T05:00:54.460Z,101620.44
2023-05-06T05:05:56.081Z,101624.56
2023-05-06T05:10:57.595Z,101627.97
2023-05-06T05:15:59.129Z,101628.41
2023-05-06T05:21:00.722Z,101637.91
2023-05-06T05:26:03.369Z,101629.16
2023-05-06T05:31:06.584Z,101630.28
2023-05-06T05:36:09.476Z,101640.38
2023-05-06T05:41:11.164Z,101646.47
2023-05-06T05:46:12.725Z,101651.53
2023-05-06T05:51:14.327Z,101648.19
2023-05-06T05:56:15.884Z,101651.88
2023-05-06T06:01:17.740Z,101653.53
2023-05-06T06:06:19.432Z,101652.22
2023-05-06T06:11:21.446Z,101643.44
2023-05-06T06:16:23.103Z,101643.63
2023-05-06T06:21:24.694Z,101649.66
2023-05-06T06:26:26.242Z,101645.88
2023-05-06T06:31:29.309Z,101645.88
2023-05-06T06:36:31.037Z,101654.06
2023-05-06T06:41:33.874Z,101653.19
2023-05-06T06:46:35.406Z,101659.56
2023-05-06T06:51:36.897Z,101661.59
2023-05-06T06:56:38.433Z,101657.25
2023-05-06T07:01:41.235Z,101657.13
2023-05-06T07:06:42.951Z,101659.50
2023-05-06T07:11:44.464Z,101660.59
2023-05-06T07:16:47.156Z,101654.66
2023-05-06T07:21:49.603Z,101661.22
2023-05-06T07:26:51.130Z,101660.06
2023-05-06T07:31:52.656Z,101667.47
2023-05-06T07:36:54.133Z,101675.84
2023-05-06T07:41:55.663Z,101677.91
2023-05-06T07:46:57.263Z,101683.69
2023-05-06T07:51:59.418Z,101685.63
2023-05-06T07:57:00.967Z,101684.97
2023-05-06T08:02:02.532Z,101689.94
2023-05-06T08:07:04.132Z,101689.06
2023-05-06T08:12:06.067Z,101687.13
2023-05-06T08:17:07.616Z,101694.13
2023-05-06T08:22:09.120Z,101696.13
2023-05-06T08:27:10.635Z,101696.06
2023-05-06T08:32:12.240Z,101692.75
2023-05-06T08:37:13.789Z,101691.34
2023-05-06T08:42:15.348Z,101691.34
2023-05-06T08:47:16.807Z,101695.81
2023-05-06T08:52:21.399Z,101701.31
2023-05-06T08:57:22.935Z,101700.59
2023-05-06T09:02:25.558Z,101697.56
2023-05-06T09:07:27.172Z,101701.50
2023-05-06T09:12:29.368Z,101693.97
2023-05-06T09:17:32.587Z,101687.59
2023-05-06T09:22:36.951Z,101690.78
2023-05-06T09:27:38.747Z,101692.09
2023-05-06T09:32:41.038Z,101680.25
2023-05-06T09:37:42.627Z,101689.34
2023-05-06T09:42:44.546Z,101681.28
2023-05-06T09:47:47.079Z,101685.75
2023-05-06T09:52:49.933Z,101689.25
2023-05-06T09:57:51.966Z,101681.88
2023-05-06T10:02:54.606Z,101683.59
2023-05-06T10:07:57.335Z,101678.19
2023-05-06T10:12:58.905Z,101688.00
2023-05-06T10:18:04.340Z,101685.75
2023-05-06T10:23:14.816Z,101683.72
2023-05-06T10:28:17.146Z,101681.97
2023-05-06T10:33:24.353Z,101681.31
2023-05-06T10:38:42.380Z,101674.19
2023-05-06T10:43:45.601Z,101673.94
2023-05-06T10:49:06.155Z,101675.78
2023-05-06T10:54:11.596Z,101670.28
2023-05-06T10:59:13.161Z,101665.44
2023-05-06T11:04:18.799Z,101660.78
2023-05-06T11:09:23.138Z,101664.91
2023-05-06T11:14:34.295Z,101653.72
2023-05-06T11:19:37.684Z,101652.91
2023-05-06T11:24:43.549Z,101642.53
2023-05-06T11:29:45.363Z,101640.38
2023-05-06T11:34:46.989Z,101628.94
2023-05-06T11:39:49.231Z,101635.94
2023-05-06T11:44:53.014Z,101634.28
2023-05-06T11:49:59.100Z,101633.66
2023-05-06T11:55:00.718Z,101631.00
2023-05-06T12:00:04.882Z,101637.72
2023-05-06T12:05:07.157Z,101626.91
2023-05-06T12:10:09.450Z,101642.03
2023-05-06T12:15:12.184Z,101640.50
2023-05-06T12:20:13.852Z,101648.56
2023-05-06T12:25:16.056Z,101653.78
2023-05-06T12:30:32.337Z,101650.97
2023-05-06T12:35:33.892Z,101652.00
2023-05-06T12:40:36.095Z,101656.47
2023-05-06T12:45:41.168Z,101647.22
2023-05-06T12:50:44.567Z,101641.47
2023-05-06T12:55:46.475Z,101648.81
2023-05-06T13:00:48.072Z,101650.97
2023-05-06T13:05:51.810Z,101636.97
2023-05-06T13:10:53.373Z,101654.66
2023-05-06T13:15:54.921Z,101658.72
2023-05-06T13:20:56.839Z,101670.47
2023-05-06T13:26:04.928Z,101661.66
2023-05-06T13:31:08.016Z,101661.75
2023-05-06T13:36:09.912Z,101659.88
2023-05-06T13:41:11.492Z,101647.91
2023-05-06T13:46:13.137Z,101647.38
2023-05-06T13:51:14.729Z,101639.94
2023-05-06T13:56:16.214Z,101635.22
2023-05-06T14:01:17.844Z,101632.00
2023-05-06T14:06:19.356Z,101629.00
2023-05-06T14:11:20.921Z,101631.78
2023-05-06T14:16:22.672Z,101618.78
2023-05-06T14:21:24.410Z,101618.78
2023-05-06T14:26:26.755Z,101616.41
2023-05-06T14:31:29.566Z,101617.44
2023-05-06T14:36:31.210Z,101615.19
2023-05-06T14:41:32.764Z,101615.78
2023-05-06T14:46:34.604Z,101612.03
2023-05-06T14:51:36.213Z,101613.47
2023-05-06T14:56:37.804Z,101603.09
2023-05-06T15:01:40.155Z,101604.19
2023-05-06T15:06:41.685Z,101599.97
2023-05-06T15:11:44.184Z,101602.13
2023-05-06T15:16:45.809Z,101598.44
2023-05-06T15:21:47.393Z,101603.00
2023-05-06T15:26:49.145Z,101597.63
2023-05-06T15:31:50.700Z,101593.38
2023-05-06T15:36:53.684Z,101587.03
2023-05-06T15:41:58.095Z,101595.06
2023-05-06T15:46:59.614Z,101588.88
2023-05-06T15:52:01.606Z,101588.25
2023-05-06T15:57:07.083Z,101587.63
2023-05-06T16:07:13.391Z,101598.66
2023-05-06T16:12:14.851Z,101590.16
2023-05-06T16:17:16.511Z,101602.28
2023-05-06T16:22:18.098Z,101598.44
2023-05-06T16:27:19.697Z,101591.41
2023-05-06T16:32:21.526Z,101600.91
2023-05-06T16:37:23.127Z,101608.91
2023-05-06T16:42:24.738Z,101594.19
2023-05-06T16:47:26.875Z,101597.97
2023-05-06T16:52:30.153Z,101600.34
2023-05-06T16:57:32.316Z,101592.53
2023-05-06T17:02:34.455Z,101587.72
2023-05-06T17:07:36.044Z,101580.47
2023-05-06T17:12:38.381Z,101583.47
2023-05-06T17:17:39.982Z,101592.72
2023-05-06T17:22:41.565Z,101585.03
2023-05-06T17:27:43.136Z,101595.44
2023-05-06T17:32:44.902Z,101594.31
2023-05-06T17:37:46.569Z,101599.56
2023-05-06T17:42:48.161Z,101601.47
2023-05-06T17:47:50.960Z,101601.38
2023-05-06T17:52:54.458Z,101602.72
2023-05-06T17:57:55.950Z,101610.09
2023-05-06T18:02:57.721Z,101595.56
2023-05-06T18:07:59.292Z,101605.78
2023-05-06T18:13:01.059Z,101607.34
2023-05-06T18:18:02.839Z,101612.91
2023-05-06T18:23:04.376Z,101619.91
2023-05-06T18:28:05.967Z,101616.06
2023-05-06T18:33:07.508Z,101630.91
2023-05-06T18:38:09.661Z,101632.03
2023-05-06T18:43:12.267Z,101632.16
2023-05-06T18:48:13.809Z,101628.59
2023-05-06T18:53:15.384Z,101639.88
2023-05-06T18:58:18.572Z,101635.53
2023-05-06T19:03:20.123Z,101633.53
2023-05-06T19:08:21.693Z,101624.06
2023-05-06T19:13:23.393Z,101621.69
2023-05-06T19:18:25.046Z,101618.06
2023-05-06T19:23:26.870Z,101624.06
2023-05-06T19:28:28.482Z,101618.78
2023-05-06T19:33:29.953Z,101637.31
2023-05-06T19:38:31.730Z,101633.00
2023-05-06T19:43:33.327Z,101641.41
2023-05-06T19:48:36.886Z,101641.78
2023-05-06T19:53:38.641Z,101647.78
2023-05-06T19:58:40.663Z,101641.06
2023-05-06T20:03:42.222Z,101650.34
2023-05-06T20:08:44.220Z,101655.84
2023-05-06T20:13:45.808Z,101657.06
2023-05-06T20:18:47.723Z,101658.94
2023-05-06T20:23:49.222Z,101656.88
2023-05-06T20:28:52.424Z,101660.16
2023-05-06T20:33:53.930Z,101654.66
2023-05-06T20:38:55.394Z,101648.69
2023-05-06T20:43:57.391Z,101661.38
2023-05-06T20:48:59.026Z,101664.47
2023-05-06T20:54:01.165Z,101644.38
2023-05-06T20:59:02.886Z,101654.50
2023-05-06T21:04:06.032Z,101659.69
2023-05-06T21:09:07.666Z,101660.41
2023-05-06T21:14:09.211Z,101655.06
2023-05-06T21:19:10.739Z,101645.97
2023-05-06T21:24:12.940Z,101642.00
2023-05-06T21:29:14.547Z,101637.72
2023-05-06T21:34:16.089Z,101631.91
2023-05-06T21:39:17.584Z,101636.19
2023-05-06T21:44:19.495Z,101633.66
2023-05-06T21:49:22.282Z,101635.34
2023-05-06T21:54:24.632Z,101635.34
2023-05-06T21:59:26.230Z,101634.66
2023-05-06T22:04:27.917Z,101624.19
2023-05-06T22:09:29.440Z,101631.22
2023-05-06T22:14:40.530Z,101629.16
2023-05-06T22:19:43.227Z,101630.00
2023-05-06T22:24:45.257Z,101615.22
2023-05-06T22:29:46.810Z,101618.34
2023-05-06T22:34:49.128Z,101625.53
2023-05-06T22:39:52.960Z,101610.09
2023-05-06T22:44:54.491Z,101612.53
2023-05-06T22:49:56.011Z,101613.19
2023-05-06T22:54:57.510Z,101613.56
2023-05-06T22:59:58.980Z,101608.78
2023-05-06T23:05:00.541Z,101608.59
2023-05-06T23:10:02.302Z,101605.66
2023-05-06T23:15:04.094Z,101593.84
2023-05-06T23:20:06.378Z,101602.91
2023-05-06T23:25:10.790Z,101606.53
2023-05-06T23:30:13.383Z,101608.94
2023-05-06T23:35:16.050Z,101620.28
2023-05-06T23:40:17.531Z,101641.56
2023-05-06T23:45:20.316Z,101630.75
2023-05-06T23:50:21.827Z,101628.34
2023-05-06T23:55:23.419Z,101631.09
